ロングイェールビーン の空港の天気 - METARとTAF

スヴァールバル空港 ( ENSB / LYR ) - スヴァールバル諸島・ヤンマイエン島 ロングイェールビーン
飛行場実況気象(Metar)
観測時間11/22 13:50 CET (11/22 12:50 UTC)
風向・風速東南東 10m/s
視程10km以上
天気現象弱いしゅう雪
少しの雲 雲底高度 460m
全天の4割程度の雲 雲底高度 910m
気温-5℃
湿度74%
気圧1036hPa
METARENSB 221250Z 11020KT 9999 -SHSN FEW015 SCT030 M05/M09 Q1036 TEMPO 4000 -SHSN VV014 RMK WIND 1400FT 10027KT
過去の天気等 Google飛行場航空写真 Wunderground天気予報

過去48時間のMETAR

飛行場予報(TAF)
発表時間: -
22日13時 CET ~ 22日19時 CET に一時的に
視程4,000m
天気現象弱いしゅう雪
全天を覆う雲 鉛直視程 430m
TAF ENSB 2212/2312 12012KT 9999 FEW015 SCT030
TEMPO 2212/2218 4000 -SHSN VV014